createdAt,value
2022-09-22T00:02:05.841Z,94.20
2022-09-22T00:07:08.752Z,93.60
2022-09-22T00:12:13.419Z,93.67
2022-09-22T00:17:16.421Z,93.50
2022-09-22T00:22:19.588Z,93.32
2022-09-22T00:27:24.248Z,93.42
2022-09-22T00:32:27.355Z,94.13
2022-09-22T00:37:30.350Z,94.10
2022-09-22T00:42:34.642Z,94.46
2022-09-22T00:47:40.416Z,94.80
2022-09-22T00:52:48.803Z,93.96
2022-09-22T00:57:55.070Z,94.92
2022-09-22T01:03:00.405Z,94.91
2022-09-22T01:08:04.413Z,95.41
2022-09-22T01:13:25.525Z,95.79
2022-09-22T01:18:40.163Z,96.67
2022-09-22T01:24:08.557Z,96.98
2022-09-22T01:29:40.961Z,100.00
2022-09-22T01:34:52.020Z,98.72
2022-09-22T01:39:59.971Z,98.11
2022-09-22T01:45:09.891Z,98.13
2022-09-22T01:50:20.176Z,98.09
2022-09-22T01:55:27.686Z,97.05
2022-09-22T02:00:31.461Z,97.36
2022-09-22T02:05:42.315Z,98.52
2022-09-22T02:10:48.740Z,97.39
2022-09-22T02:16:03.586Z,97.15
2022-09-22T02:21:08.102Z,97.40
2022-09-22T02:26:13.788Z,98.36
2022-09-22T02:31:20.940Z,97.96
2022-09-22T02:36:39.941Z,98.54
2022-09-22T02:41:57.840Z,98.14
2022-09-22T02:47:04.891Z,97.72
2022-09-22T02:52:14.011Z,98.64
2022-09-22T02:57:16.864Z,99.03
2022-09-22T03:02:19.782Z,98.82
2022-09-22T03:07:24.309Z,98.68
2022-09-22T03:12:27.109Z,97.32
2022-09-22T03:17:32.202Z,97.20
2022-09-22T03:22:36.532Z,97.71
2022-09-22T03:27:40.095Z,97.51
2022-09-22T03:32:43.004Z,97.94
2022-09-22T03:37:47.943Z,97.44
2022-09-22T03:42:51.206Z,97.16
2022-09-22T03:47:54.466Z,97.01
2022-09-22T03:52:59.651Z,96.60
2022-09-22T03:58:02.874Z,97.44
2022-09-22T04:03:05.892Z,99.21
2022-09-22T04:08:10.164Z,98.14
2022-09-22T04:13:13.336Z,98.34
2022-09-22T04:18:16.325Z,98.11
2022-09-22T04:23:20.737Z,98.09
2022-09-22T04:28:23.806Z,97.47
2022-09-22T04:33:27.145Z,97.29
2022-09-22T04:38:31.424Z,96.91
2022-09-22T04:43:34.435Z,96.81
2022-09-22T04:48:37.310Z,97.10
2022-09-22T04:53:41.594Z,97.72
2022-09-22T04:58:44.718Z,97.28
2022-09-22T05:03:47.711Z,96.73
2022-09-22T05:08:52.042Z,97.26
2022-09-22T05:13:56.177Z,98.17
2022-09-22T05:18:59.576Z,98.26
2022-09-22T05:24:04.224Z,97.93
2022-09-22T05:29:07.161Z,98.06
2022-09-22T05:34:10.056Z,98.82
2022-09-22T05:39:14.900Z,98.67
2022-09-22T05:44:18.460Z,98.55
2022-09-22T05:49:21.402Z,98.38
2022-09-22T05:54:26.257Z,98.74
2022-09-22T05:59:29.157Z,98.55
2022-09-22T06:04:32.229Z,98.92
2022-09-22T06:09:36.505Z,100.00
2022-09-22T06:14:39.452Z,100.00
2022-09-22T06:19:43.212Z,100.00
2022-09-22T06:24:48.888Z,100.00
2022-09-22T06:29:51.993Z,100.00
2022-09-22T06:34:56.160Z,100.00
2022-09-22T06:40:00.597Z,100.00
2022-09-22T06:45:04.749Z,100.00
2022-09-22T06:50:09.752Z,100.00
2022-09-22T06:55:19.440Z,100.00
2022-09-22T07:00:22.993Z,98.42
2022-09-22T07:05:26.103Z,96.12
2022-09-22T07:10:30.444Z,95.58
2022-09-22T07:15:35.590Z,94.05
2022-09-22T07:20:38.559Z,92.90
2022-09-22T07:25:43.432Z,92.10
2022-09-22T07:30:47.832Z,92.00
2022-09-22T07:35:59.582Z,91.97
2022-09-22T07:41:05.412Z,92.12
2022-09-22T07:46:09.244Z,96.74
2022-09-22T07:51:18.436Z,99.41
2022-09-22T07:56:27.850Z,100.00
2022-09-22T08:01:32.259Z,100.00
2022-09-22T08:06:36.134Z,95.80
2022-09-22T08:11:40.817Z,96.14
2022-09-22T08:16:44.493Z,94.17
2022-09-22T08:21:49.798Z,92.78
2022-09-22T08:26:56.097Z,93.09
2022-09-22T08:31:59.205Z,92.79
2022-09-22T08:37:02.237Z,92.83
2022-09-22T08:42:14.416Z,93.07
2022-09-22T08:47:41.252Z,92.58
2022-09-22T08:52:50.238Z,91.81
2022-09-22T08:58:02.056Z,90.88
2022-09-22T09:03:23.448Z,86.97
2022-09-22T09:09:01.383Z,83.63
2022-09-22T09:14:22.144Z,83.73
2022-09-22T09:19:39.248Z,81.55
2022-09-22T09:30:17.890Z,79.25
2022-09-22T09:35:26.782Z,77.89
2022-09-22T09:40:30.221Z,78.58
2022-09-22T09:45:43.719Z,74.96
2022-09-22T09:50:46.556Z,73.52
2022-09-22T09:55:50.904Z,71.13
2022-09-22T10:00:58.878Z,70.48
2022-09-22T10:06:06.267Z,71.31
2022-09-22T10:11:10.400Z,69.23
2022-09-22T10:16:35.983Z,65.44
2022-09-22T10:21:38.845Z,67.46
2022-09-22T10:26:56.105Z,63.94
2022-09-22T10:32:21.479Z,65.81
2022-09-22T10:37:28.928Z,66.13
2022-09-22T10:42:36.877Z,57.87
2022-09-22T10:47:57.281Z,58.81
2022-09-22T10:53:17.683Z,59.10
2022-09-22T10:58:28.413Z,57.74
2022-09-22T11:04:03.569Z,54.81
2022-09-22T11:09:34.914Z,58.87
2022-09-22T11:15:07.779Z,55.86
2022-09-22T11:20:36.832Z,55.94
2022-09-22T11:25:54.352Z,55.67
2022-09-22T11:30:59.065Z,57.38
2022-09-22T11:36:16.851Z,56.27
2022-09-22T11:41:31.700Z,56.75
2022-09-22T11:46:48.010Z,54.52
2022-09-22T11:52:17.561Z,53.14
2022-09-22T11:57:24.613Z,56.14
2022-09-22T12:02:35.148Z,57.11
2022-09-22T12:07:47.174Z,55.48
2022-09-22T12:12:51.923Z,58.01
2022-09-22T12:18:02.114Z,54.44
2022-09-22T12:23:38.002Z,56.16
2022-09-22T12:28:45.621Z,56.50
2022-09-22T12:33:51.225Z,56.14
2022-09-22T12:38:54.231Z,56.43
2022-09-22T12:44:09.481Z,54.88
2022-09-22T12:49:17.070Z,55.73
2022-09-22T12:54:40.020Z,53.90
2022-09-22T12:59:59.802Z,52.20
2022-09-22T13:05:44.154Z,49.34
2022-09-22T13:10:57.458Z,59.28
2022-09-22T13:16:03.131Z,55.51
2022-09-22T13:21:23.809Z,53.83
2022-09-22T13:26:29.469Z,60.22
2022-09-22T13:31:42.738Z,57.01
2022-09-22T13:36:46.259Z,54.27
2022-09-22T13:41:53.837Z,55.46
2022-09-22T13:47:01.312Z,53.29
2022-09-22T13:52:07.808Z,57.78
2022-09-22T13:57:21.563Z,58.89
2022-09-22T14:02:31.351Z,59.78
2022-09-22T14:07:55.099Z,57.42
2022-09-22T14:13:01.783Z,57.54
2022-09-22T14:18:15.753Z,49.55
2022-09-22T14:23:26.000Z,56.54
2022-09-22T14:28:32.940Z,56.77
2022-09-22T14:33:37.590Z,57.46
2022-09-22T14:38:46.727Z,57.14
2022-09-22T14:43:55.410Z,55.86
2022-09-22T14:48:59.983Z,56.45
2022-09-22T14:54:05.716Z,56.33
2022-09-22T14:59:24.092Z,53.34
2022-09-22T15:04:31.165Z,54.57
2022-09-22T15:09:39.613Z,58.34
2022-09-22T15:14:44.390Z,54.28
2022-09-22T15:19:53.501Z,53.40
2022-09-22T15:24:58.356Z,52.14
2022-09-22T15:30:01.390Z,53.81
2022-09-22T15:35:06.733Z,58.58
2022-09-22T15:40:17.953Z,54.59
2022-09-22T15:45:22.601Z,56.12
2022-09-22T15:50:30.540Z,56.69
2022-09-22T15:55:34.485Z,56.94
2022-09-22T16:00:38.172Z,60.02
2022-09-22T16:05:43.304Z,56.27
2022-09-22T16:10:46.409Z,60.15
2022-09-22T16:15:50.401Z,57.56
2022-09-22T16:21:04.242Z,57.61
2022-09-22T16:26:07.255Z,59.83
2022-09-22T16:31:10.194Z,58.42
2022-09-22T16:36:14.624Z,58.32
2022-09-22T16:41:21.967Z,57.93
2022-09-22T16:46:28.541Z,60.30
2022-09-22T16:51:35.569Z,62.89
2022-09-22T16:56:39.141Z,62.52
2022-09-22T17:01:43.756Z,62.27
2022-09-22T17:06:48.862Z,63.08
2022-09-22T17:11:52.812Z,65.22
2022-09-22T17:16:57.434Z,65.71
2022-09-22T17:22:01.718Z,67.13
2022-09-22T17:27:05.684Z,69.13
2022-09-22T17:32:09.077Z,70.34
2022-09-22T17:37:15.683Z,70.65
2022-09-22T17:42:19.454Z,71.91
2022-09-22T17:47:39.897Z,72.71
2022-09-22T17:53:01.942Z,73.28
2022-09-22T17:58:04.920Z,74.53
2022-09-22T18:03:07.840Z,74.77
2022-09-22T18:08:13.154Z,74.47
2022-09-22T18:13:16.267Z,74.90
2022-09-22T18:18:19.517Z,75.62
2022-09-22T18:23:28.360Z,76.91
2022-09-22T18:28:31.479Z,77.23
2022-09-22T18:33:36.374Z,78.44
2022-09-22T18:38:42.377Z,79.71
2022-09-22T18:43:45.835Z,79.72
2022-09-22T18:48:49.955Z,79.69
2022-09-22T18:53:55.053Z,79.74
2022-09-22T18:58:58.029Z,80.80
2022-09-22T19:04:01.659Z,81.51
2022-09-22T19:09:06.390Z,82.02
2022-09-22T19:14:10.741Z,83.32
2022-09-22T19:19:14.200Z,83.32
2022-09-22T19:24:18.844Z,83.99
2022-09-22T19:29:22.009Z,84.46
2022-09-22T19:34:25.069Z,84.75
2022-09-22T19:39:31.028Z,84.84
2022-09-22T19:44:33.934Z,85.13
2022-09-22T19:49:36.892Z,85.28
2022-09-22T19:54:41.259Z,83.75
2022-09-22T19:59:44.941Z,84.15
2022-09-22T20:04:48.193Z,85.28
2022-09-22T20:09:52.510Z,86.12
2022-09-22T20:14:55.853Z,86.10
2022-09-22T20:19:58.899Z,85.93
2022-09-22T20:25:05.182Z,85.74
2022-09-22T20:30:09.462Z,85.81
2022-09-22T20:35:14.427Z,86.49
2022-09-22T20:40:21.598Z,86.60
2022-09-22T20:45:25.302Z,87.14
2022-09-22T20:50:28.398Z,87.83
2022-09-22T20:55:33.069Z,88.43
2022-09-22T21:00:36.098Z,88.62
2022-09-22T21:05:39.198Z,88.83
2022-09-22T21:10:43.560Z,88.85
2022-09-22T21:15:46.849Z,88.97
2022-09-22T21:20:50.212Z,89.18
2022-09-22T21:26:04.099Z,89.72
2022-09-22T21:31:09.062Z,90.32
2022-09-22T21:36:14.751Z,90.02
2022-09-22T21:41:21.304Z,89.48
2022-09-22T21:46:26.270Z,89.43
2022-09-22T21:51:30.659Z,89.65
2022-09-22T21:56:35.883Z,90.53
2022-09-22T22:01:40.938Z,90.50
2022-09-22T22:06:45.679Z,90.23
2022-09-22T22:11:53.917Z,91.31
2022-09-22T22:16:56.833Z,91.65
2022-09-22T22:21:59.726Z,91.56
2022-09-22T22:27:06.935Z,91.30
2022-09-22T22:32:11.608Z,92.05
2022-09-22T22:37:14.663Z,92.04
2022-09-22T22:42:19.057Z,92.00
2022-09-22T22:47:22.115Z,91.46
2022-09-22T22:52:25.030Z,92.17
2022-09-22T22:57:30.167Z,88.82
2022-09-22T23:02:33.065Z,90.80
2022-09-22T23:07:36.079Z,91.86
2022-09-22T23:12:40.579Z,92.38
2022-09-22T23:17:43.524Z,92.22
2022-09-22T23:22:46.502Z,93.06
2022-09-22T23:27:51.081Z,93.80
2022-09-22T23:32:54.131Z,92.78
2022-09-22T23:37:57.294Z,92.36
2022-09-22T23:43:01.737Z,92.66
2022-09-22T23:48:04.824Z,92.07
2022-09-22T23:53:08.518Z,92.89
2022-09-22T23:58:14.308Z,92.14
